Latest Weather Observations for Maroochydore

IDQ60801

Issued at 7:32 am EST Friday 20 January 2017 (issued every 30 minutes, with the page automatically refreshed every 10 minutes)

About weather observations | Map of weather stations | Latest weather observations for QLD | Other Formats
Station Details ID: 040861 Name: SUNSHINE COAST AIRPORT Lat: -26.60 Lon: 153.09 Height: 3.3 m
Data from the previous 72 hours. | See also: Recent months at Maroochydore
Date/Time
EST
Temp
°C
App
Temp
°C
Dew
Point
°C
Rel
Hum
%
Delta-T
°C
Wind Press
QNH
hPa
Press
MSL
hPa
Rain since
9am
mm
Dir  Spd
km/h
Gust
km/h
Spd
kts
Gust
kts
20/07:05am 23.7 28.2 21.6 88 1.4 CALM 0 0 0 0 1010.0 - 0.0
20/07:00am 23.8 28.6 22.1 90 1.1 CALM 0 0 0 0 1010.0 - 0.0
20/06:48am 23.8 28.6 22.1 90 1.1 CALM 0 0 0 0 1010.0 - 0.0
20/06:40am 23.8 28.1 21.9 89 1.3 NNW 2 6 1 3 1009.9 - 0.0
20/06:30am 23.7 27.2 21.8 89 1.3 NNW 6 7 3 4 1009.9 - 0.0
20/06:29am 23.7 27.1 21.6 88 1.4 NNW 6 7 3 4 1009.9 - 0.0
20/06:23am 23.7 26.8 21.4 87 1.5 NNW 7 9 4 5 1009.8 - 0.0
20/06:07am 23.9 26.9 21.2 85 1.8 NNW 7 9 4 5 1009.7 - 0.0
20/06:00am 24.0 27.2 21.3 85 1.8 WNW 6 7 3 4 1009.6 1009.6 0.0
20/05:30am 24.0 26.3 20.7 82 2.2 WSW 9 11 5 6 1009.1 - 0.0
20/05:29am 24.1 26.5 20.8 82 2.2 WSW 9 13 5 7 1009.1 - 0.0
20/05:00am 24.6 28.7 20.7 79 2.6 CALM 0 0 0 0 1008.8 - 0.0
20/04:31am 24.5 28.4 20.4 78 2.7 CALM 0 0 0 0 1008.3 - 0.0
20/04:30am 24.4 28.3 20.3 78 2.7 CALM 0 0 0 0 1008.3 - 0.0
20/04:00am 24.4 26.9 20.3 78 2.7 WSW 7 9 4 5 1008.1 - 0.0
20/03:30am 24.4 27.0 20.5 79 2.5 WSW 7 9 4 5 1008.2 - 0.0
20/03:00am 24.5 27.0 20.2 77 2.8 W 7 7 4 4 1008.2 1008.2 0.0
20/02:30am 25.2 27.9 20.7 76 2.9 SSE 7 9 4 5 1008.4 - 0.0
20/02:00am 25.1 27.8 20.6 76 2.9 S 7 9 4 5 1008.8 - 0.0
20/01:30am 25.2 27.4 20.5 75 3.1 S 9 11 5 6 1008.9 - 0.0
20/01:00am 25.4 27.1 20.2 73 3.4 SSE 11 15 6 8 1009.0 - 0.0
20/12:30am 25.5 26.8 20.1 72 3.5 SSE 13 17 7 9 1009.5 - 0.0
20/12:00am 25.5 26.8 20.1 72 3.5 SSE 13 19 7 10 1009.9 1009.9 0.0
 
Date/Time
EST
Temp
°C
App
Temp
°C
Dew
Point
°C
Rel
Hum
%
Delta-T
°C
Wind Press
QNH
hPa
Press
MSL
hPa
Rain since
9am
mm
Dir  Spd
km/h
Gust
km/h
Spd
kts
Gust
kts
19/11:30pm 25.5 26.1 20.3 73 3.4 SSE 17 20 9 11 1010.2 - 0.0
19/11:00pm 25.4 25.6 20.2 73 3.4 SSE 19 24 10 13 1010.3 - 0.0
19/10:30pm 25.6 25.8 20.6 74 3.3 SSE 20 28 11 15 1010.3 - 0.0
19/10:00pm 25.6 25.9 20.8 75 3.2 SSE 20 28 11 15 1010.6 - 0.0
19/09:30pm 25.5 25.9 20.7 75 3.1 SSE 19 26 10 14 1010.6 - 0.0
19/09:00pm 25.5 25.7 20.5 74 3.3 SE 20 28 11 15 1010.8 1010.8 0.0
19/08:30pm 25.9 26.6 20.5 72 3.5 SSE 17 24 9 13 1010.8 - 0.0
19/08:00pm 26.1 26.8 20.4 71 3.7 SSE 17 24 9 13 1010.7 - 0.0
19/07:30pm 26.2 27.0 20.7 71 3.6 SSE 17 26 9 14 1010.6 - 0.0
19/07:00pm 26.2 27.2 21.0 73 3.4 SSE 17 24 9 13 1010.2 - 0.0
19/06:30pm 26.4 26.8 20.9 72 3.6 SSE 20 28 11 15 1010.0 - 0.0
19/06:00pm 26.4 26.3 20.7 71 3.8 SE 22 30 12 16 1009.7 1009.7 0.0
19/05:30pm 27.2 26.7 20.8 68 4.2 SSE 24 33 13 18 1009.4 - 0.0
19/05:00pm 27.6 26.5 20.2 64 4.8 SE 26 35 14 19 1009.0 - 0.0
19/04:30pm 28.6 27.9 21.1 64 5.0 SE 26 35 14 19 1008.7 - 0.0
19/04:00pm 28.8 27.3 21.0 62 5.2 SE 30 37 16 20 1008.6 - 0.0
19/03:30pm 29.1 27.8 21.3 62 5.2 SE 30 39 16 21 1008.9 - 0.0
19/03:00pm 29.0 27.9 21.0 62 5.3 SE 28 37 15 20 1009.3 1009.3 0.0
19/02:30pm 29.2 28.4 21.7 64 5.0 SE 28 37 15 20 1009.5 - 0.0
19/02:00pm 29.2 27.4 21.2 62 5.3 SE 32 41 17 22 1009.8 - 0.0
19/01:30pm 29.3 27.4 21.0 61 5.5 SE 32 43 17 23 1010.0 - 0.0
19/01:00pm 29.8 28.3 20.9 59 5.9 SE 30 43 16 23 1010.2 - 0.0
19/12:30pm 30.9 30.0 21.4 57 6.4 SE 28 39 15 21 1010.3 - 0.0
19/12:00pm 30.9 29.5 21.1 56 6.6 SE 30 41 16 22 1010.5 1010.5 0.0
19/11:30am 29.5 28.3 20.9 60 5.7 SE 28 39 15 21 1010.7 - 0.0
19/11:00am 29.7 28.5 20.8 58 5.9 SE 28 33 15 18 1010.7 - 0.0
19/10:30am 29.8 28.3 20.9 59 5.9 SSE 30 41 16 22 1010.9 - 0.0
19/10:00am 30.7 30.9 22.0 59 5.9 SE 24 35 13 19 1011.0 - 0.0
19/09:30am 29.5 29.1 21.7 63 5.2 SE 26 39 14 21 1011.1 - 0.0
19/09:00am 29.3 29.8 22.0 64 4.9 SE 22 30 12 16 1011.1 1011.1 0.0
19/08:30am 28.4 29.8 22.9 72 3.7 SE 20 28 11 15 1011.1 - 0.0
19/08:00am 28.1 29.0 21.6 68 4.3 SSE 19 24 10 13 1010.9 - 0.0
19/07:30am 27.8 29.7 20.6 65 4.7 SW 11 15 6 8 1010.8 - 0.0
19/07:00am 27.9 30.1 21.2 67 4.5 SW 11 15 6 8 1010.4 - 0.0
19/06:30am 26.5 29.2 21.3 73 3.4 SW 9 13 5 7 1010.3 - 0.0
19/06:00am 24.7 27.7 21.2 81 2.3 W 7 11 4 6 1009.8 1009.8 0.0
19/05:30am 23.6 26.4 20.5 83 2.0 N 6 9 3 5 1009.5 - 0.0
19/05:00am 24.2 26.1 20.5 80 2.4 SSE 11 24 6 13 1009.3 - 0.0
19/04:55am 24.2 25.3 20.5 80 2.4 S 15 26 8 14 1009.4 - 0.0
19/04:30am 24.5 25.3 20.6 79 2.5 NNW 17 22 9 12 1007.4 - 0.0
19/04:00am 24.7 25.9 20.6 78 2.7 NNW 15 22 8 12 1007.3 - 0.0
19/03:30am 24.9 25.3 20.6 77 2.8 NNW 19 26 10 14 1006.9 - 0.0
19/03:00am 24.9 25.7 20.6 77 2.8 NW 17 26 9 14 1007.1 1007.1 0.0
19/02:30am 24.9 26.2 20.8 78 2.7 NNW 15 24 8 13 1007.1 - 0.0
19/02:00am 24.8 26.0 20.7 78 2.7 NNW 15 24 8 13 1007.3 - 0.0
19/01:30am 24.9 26.2 20.8 78 2.7 NNW 15 20 8 11 1007.7 - 0.0
19/01:00am 24.4 26.2 21.1 82 2.2 NNW 13 19 7 10 1008.0 - 0.0
19/12:30am 24.5 26.3 21.2 82 2.2 NNW 13 19 7 10 1008.4 - 0.0
19/12:00am 24.3 26.0 21.0 82 2.2 NNW 13 15 7 8 1008.7 1008.7 0.0
 
Date/Time
EST
Temp
°C
App
Temp
°C
Dew
Point
°C
Rel
Hum
%
Delta-T
°C
Wind Press
QNH
hPa
Press
MSL
hPa
Rain since
9am
mm
Dir  Spd
km/h
Gust
km/h
Spd
kts
Gust
kts
18/11:30pm 24.6 26.3 20.9 80 2.4 N 13 19 7 10 1009.0 - 0.0
18/11:00pm 24.6 26.3 20.9 80 2.4 N 13 17 7 9 1009.3 - 0.0
18/10:30pm 25.0 27.1 20.9 78 2.7 NNW 11 17 6 9 1009.6 - 0.0
18/10:00pm 25.5 27.2 21.0 76 3.0 N 13 15 7 8 1009.6 - 0.0
18/09:30pm 25.9 27.7 21.1 75 3.2 N 13 17 7 9 1009.6 - 0.0
18/09:00pm 25.9 27.7 21.8 78 2.7 N 15 19 8 10 1009.2 1009.2 0.0
18/08:30pm 26.0 28.9 22.5 81 2.4 NNW 11 17 6 9 1009.1 - 0.0
18/08:00pm 26.1 29.1 22.6 81 2.4 N 11 19 6 10 1008.9 - 0.0
18/07:30pm 26.4 30.1 22.5 79 2.6 N 7 11 4 6 1008.6 - 0.0
18/07:00pm 26.7 28.9 23.2 81 2.4 N 17 20 9 11 1008.5 - 0.0
18/06:30pm 27.1 27.5 23.1 79 2.7 N 26 33 14 18 1008.4 - 0.0
18/06:00pm 27.8 27.0 23.0 75 3.3 N 32 43 17 23 1008.5 1008.5 0.0
18/05:30pm 28.5 27.9 22.7 71 3.9 N 30 43 16 23 1008.5 - 0.0
18/05:00pm 28.6 27.0 22.6 70 4.1 N 35 44 19 24 1008.6 - 0.0
18/04:30pm 29.6 29.0 23.3 69 4.3 N 32 41 17 22 1008.4 - 0.0
18/04:00pm 29.9 29.0 23.1 67 4.7 N 33 46 18 25 1008.4 - 0.0
18/03:30pm 30.4 29.2 22.6 63 5.3 NNE 33 46 18 25 1008.7 - 0.0
18/03:00pm 30.6 29.4 22.2 61 5.7 NNE 32 41 17 22 1009.1 1009.1 0.0
18/02:30pm 30.7 29.7 22.6 62 5.5 NNE 32 41 17 22 1009.5 - 0.0
18/02:00pm 30.8 28.9 22.1 59 5.9 NNE 35 44 19 24 1009.9 - 0.0
18/01:30pm 31.1 30.3 23.0 62 5.6 NNE 32 41 17 22 1010.2 - 0.0
18/01:00pm 31.5 30.2 22.5 59 6.1 NNE 33 41 18 22 1010.7 - 0.0
18/12:30pm 31.3 29.9 22.3 58 6.1 NNE 33 43 18 23 1011.0 - 0.0
18/12:00pm 32.4 31.5 22.2 55 7.0 NNE 30 41 16 22 1011.4 1011.4 0.0
18/11:30am 33.8 32.9 18.3 39 10.1 NNW 20 30 11 16 1011.7 - 0.0
18/11:00am 32.4 31.8 17.5 41 9.5 NNW 17 26 9 14 1012.6 - 0.0
18/10:30am 31.6 30.8 16.0 39 9.7 NW 15 24 8 13 1013.1 - 0.0
18/10:00am 31.5 31.0 17.8 44 8.8 NW 17 24 9 13 1013.6 - 0.0
18/09:30am 30.8 30.7 18.8 48 7.8 WNW 17 26 9 14 1013.8 - 0.0
18/09:00am 30.2 30.9 20.4 55 6.5 NNW 17 20 9 11 1014.0 1014.0 0.2
18/08:30am 28.7 29.4 20.4 60 5.5 NW 17 26 9 14 1014.1 - 0.2
18/08:00am 28.0 28.8 20.6 64 4.9 NW 17 26 9 14 1014.4 - 0.2
18/07:30am 26.8 28.8 22.2 76 3.1 NW 15 22 8 12 1014.4 - 0.2
18/07:00am 24.4 27.5 22.1 87 1.5 WNW 9 13 5 7 1014.2 - 0.2
18/06:30am 22.4 25.6 21.2 93 0.8 W 6 9 3 5 1014.3 - 0.2
18/06:00am 21.5 24.3 20.8 96 0.5 WNW 7 11 4 6 1013.9 1013.9 0.2
18/05:30am 20.6 22.3 20.1 97 0.3 WNW 11 11 6 6 1013.6 - 0.2
18/05:00am 20.2 22.1 19.7 97 0.3 W 9 11 5 6 1013.5 - 0.2
18/04:30am 20.3 21.7 19.6 96 0.4 WNW 11 11 6 6 1013.3 - 0.2
18/04:00am 20.0 22.1 19.3 96 0.4 WNW 7 9 4 5 1013.2 - 0.2
18/03:30am 20.1 21.8 19.3 95 0.5 WNW 9 11 5 6 1013.1 - 0.2
18/03:00am 20.3 22.5 19.6 96 0.4 WNW 7 9 4 5 1013.2 1013.2 0.2
18/02:30am 20.6 22.5 19.8 95 0.5 NW 9 11 5 6 1013.3 - 0.2
18/02:00am 20.7 22.7 19.9 95 0.5 NW 9 11 5 6 1013.5 - 0.2
18/01:30am 20.9 22.5 19.9 94 0.6 NW 11 11 6 6 1013.7 - 0.2
18/01:00am 21.0 22.9 19.8 93 0.8 WNW 9 11 5 6 1013.9 - 0.2
18/12:30am 21.6 23.4 20.4 93 0.8 NW 11 13 6 7 1014.2 - 0.2
18/12:00am 21.5 23.7 20.3 93 0.8 NW 9 11 5 6 1014.7 1014.7 0.2
 
Date/Time
EST
Temp
°C
App
Temp
°C
Dew
Point
°C
Rel
Hum
%
Delta-T
°C
Wind Press
QNH
hPa
Press
MSL
hPa
Rain since
9am
mm
Dir  Spd
km/h
Gust
km/h
Spd
kts
Gust
kts
17/11:30pm 21.7 23.8 20.2 91 1.0 WNW 9 11 5 6 1014.9 - 0.2
17/11:00pm 22.2 24.1 20.5 90 1.1 WNW 11 13 6 7 1015.2 - 0.2
17/10:30pm 22.7 24.5 20.4 87 1.5 NW 11 11 6 6 1015.4 - 0.2
17/10:00pm 22.8 24.8 20.0 84 1.8 NNW 9 11 5 6 1015.6 - 0.2
17/09:30pm 23.5 25.2 20.2 82 2.1 N 11 13 6 7 1015.8 - 0.2
17/09:00pm 24.3 25.6 20.2 78 2.7 N 13 17 7 9 1015.8 1015.8 0.2
17/08:30pm 24.0 26.2 20.3 80 2.4 N 9 15 5 8 1015.7 - 0.2
17/08:00pm 24.5 26.2 20.2 77 2.8 N 11 15 6 8 1015.6 - 0.2
17/07:30pm 25.4 26.6 20.6 75 3.1 N 15 20 8 11 1015.5 - 0.2
17/07:00pm 25.8 26.5 20.4 72 3.5 NNE 17 22 9 12 1015.3 - 0.2
17/06:30pm 26.4 27.0 20.3 69 4.0 NNE 17 20 9 11 1015.1 - 0.2
17/06:00pm 27.2 27.3 20.0 64 4.7 NNE 19 24 10 13 1014.7 1014.7 0.2
17/05:30pm 27.8 27.8 19.8 61 5.2 NE 19 24 10 13 1014.6 - 0.2
17/05:00pm 28.5 29.1 21.0 64 5.0 NE 19 24 10 13 1014.5 - 0.2
17/04:30pm 28.9 29.1 20.6 61 5.5 NE 20 26 11 14 1014.4 - 0.2
17/04:00pm 29.1 29.6 20.8 61 5.5 NE 19 26 10 14 1014.3 - 0.2
17/03:30pm 29.9 30.5 21.3 60 5.8 NE 20 26 11 14 1014.4 - 0.2
17/03:00pm 29.8 29.4 20.1 56 6.4 NE 22 28 12 15 1014.5 1014.5 0.2
17/02:30pm 30.3 30.5 20.5 55 6.5 NE 20 26 11 14 1014.7 - 0.2
17/02:00pm 30.8 30.7 20.7 55 6.7 NE 22 28 12 15 1014.9 - 0.2
17/01:30pm 30.8 31.4 21.3 57 6.4 ENE 20 26 11 14 1015.0 - 0.2
17/01:00pm 30.1 29.8 19.5 53 6.9 NE 20 26 11 14 1015.2 - 0.2
17/12:30pm 30.4 30.8 20.9 57 6.3 NE 20 24 11 13 1015.6 - 0.2
17/12:00pm 30.3 30.6 20.8 56 6.3 NE 20 24 11 13 1015.9 1015.9 0.2
17/11:30am 30.8 31.9 21.9 59 6.0 NE 19 24 10 13 1016.3 - 0.2
17/11:00am 30.2 30.6 21.0 58 6.1 NNE 20 24 11 13 1016.6 - 0.2
17/10:30am 29.8 30.5 21.2 60 5.7 NE 19 24 10 13 1016.8 - 0.2
17/10:00am 29.4 30.4 21.1 61 5.5 NE 17 22 9 12 1016.8 - 0.2
17/09:30am 29.2 30.1 20.9 61 5.5 NE 17 22 9 12 1016.9 - 0.2
17/09:00am 28.9 31.5 22.6 69 4.3 NE 13 19 7 10 1016.9 1016.9 0.2
17/08:30am 27.9 31.2 22.6 73 3.6 ESE 9 13 5 7 1017.0 - 0.2
17/08:10am 27.0 31.8 23.5 81 2.4 ESE 4 11 2 6 1016.9 - 0.2
17/08:00am 26.1 31.0 23.0 83 2.1 S 2 9 1 5 1016.9 - 0.2
17/07:58am 26.3 31.0 23.4 84 2.0 S 4 9 2 5 1016.9 - 0.2

Other Formats:

Comma delimited format used in spreadsheet applications
http://www.bom.gov.au/fwo/IDQ60801/IDQ60801.94569.axf

JavaScript Object Notation format (JSON) in row-major order
http://www.bom.gov.au/fwo/IDQ60801/IDQ60801.94569.json